createdAt,value
2019-05-02T00:00:05.953Z,997.47
2019-05-02T00:01:05.981Z,997.51
2019-05-02T00:02:05.930Z,997.47
2019-05-02T00:03:05.923Z,997.46
2019-05-02T00:04:05.911Z,997.47
2019-05-02T00:05:05.902Z,997.45
2019-05-02T00:06:07.370Z,997.41
2019-05-02T00:07:05.875Z,997.41
2019-05-02T00:08:05.859Z,997.38
2019-05-02T00:09:09.145Z,997.35
2019-05-02T00:10:06.843Z,997.33
2019-05-02T00:11:05.853Z,997.35
2019-05-02T00:12:05.832Z,997.37
2019-05-02T00:13:05.812Z,997.33
2019-05-02T00:14:05.798Z,997.36
2019-05-02T00:15:05.787Z,997.32
2019-05-02T00:16:09.136Z,997.30
2019-05-02T00:17:06.773Z,997.30
2019-05-02T00:18:05.751Z,997.30
2019-05-02T00:19:09.055Z,997.26
2019-05-02T00:20:06.728Z,997.26
2019-05-02T00:21:05.728Z,997.25
2019-05-02T00:22:05.759Z,997.27
2019-05-02T00:23:05.706Z,997.21
2019-05-02T00:24:05.700Z,997.29
2019-05-02T00:25:05.676Z,997.28
2019-05-02T00:26:05.678Z,997.25
2019-05-02T00:27:05.680Z,997.24
2019-05-02T00:28:07.823Z,997.21
2019-05-02T00:29:06.657Z,997.22
2019-05-02T00:30:05.636Z,997.21
2019-05-02T00:31:07.475Z,997.24
2019-05-02T00:32:06.627Z,997.21
2019-05-02T00:33:05.596Z,997.20
2019-05-02T00:34:05.619Z,997.20
2019-05-02T00:35:05.568Z,997.18
2019-05-02T00:36:05.568Z,997.15
2019-05-02T00:37:05.580Z,997.12
2019-05-02T00:38:05.547Z,997.13
2019-05-02T00:39:09.510Z,997.14
2019-05-02T00:40:06.515Z,997.14
2019-05-02T00:41:05.527Z,997.09
2019-05-02T00:42:12.429Z,997.12
2019-05-02T00:43:06.505Z,997.17
2019-05-02T00:44:06.092Z,997.14
2019-05-02T00:45:06.470Z,997.11
2019-05-02T00:46:05.462Z,997.15
2019-05-02T00:47:06.108Z,997.11
2019-05-02T00:48:06.447Z,997.18
2019-05-02T00:49:05.423Z,997.18
2019-05-02T00:50:06.188Z,997.15
2019-05-02T00:51:06.407Z,997.15
2019-05-02T00:52:05.397Z,997.12
2019-05-02T00:53:07.292Z,997.10
2019-05-02T00:54:06.392Z,997.07
2019-05-02T00:55:05.356Z,997.14
2019-05-02T00:56:09.169Z,997.12
2019-05-02T00:57:06.327Z,997.09
2019-05-02T00:58:05.357Z,997.12
2019-05-02T00:59:07.423Z,997.06
2019-05-02T01:00:05.307Z,997.08
2019-05-02T01:01:05.300Z,997.06
2019-05-02T01:02:07.086Z,997.11
2019-05-02T01:03:05.286Z,997.07
2019-05-02T01:04:05.265Z,997.09
2019-05-02T01:05:05.268Z,997.01
2019-05-02T01:06:05.248Z,997.06
2019-05-02T01:07:05.224Z,997.01
2019-05-02T01:08:05.224Z,997.03
2019-05-02T01:09:05.780Z,997.02
2019-05-02T01:10:06.202Z,997.01
2019-05-02T01:11:05.184Z,997.07
2019-05-02T01:12:08.282Z,997.03
2019-05-02T01:13:05.170Z,997.03
2019-05-02T01:14:05.151Z,997.04
2019-05-02T01:15:08.389Z,997.05
2019-05-02T01:16:05.144Z,997.06
2019-05-02T01:17:05.126Z,997.01
2019-05-02T01:18:06.127Z,996.97
2019-05-02T01:19:05.093Z,997.02
2019-05-02T01:20:05.095Z,996.98
2019-05-02T01:21:05.104Z,997.00
2019-05-02T01:22:05.098Z,996.96
2019-05-02T01:23:05.055Z,996.95
2019-05-02T01:24:05.055Z,996.99
2019-05-02T01:25:05.050Z,996.98
2019-05-02T01:26:05.034Z,996.95
2019-05-02T01:27:06.501Z,996.95
2019-05-02T01:28:05.011Z,996.93
2019-05-02T01:29:04.992Z,996.93
2019-05-02T01:30:06.080Z,996.96
2019-05-02T01:31:04.999Z,996.95
2019-05-02T01:32:04.972Z,996.92
2019-05-02T01:33:06.396Z,996.88
2019-05-02T01:34:04.940Z,996.94
2019-05-02T01:35:04.953Z,996.92
2019-05-02T01:36:06.393Z,996.92
2019-05-02T01:37:04.935Z,996.90
2019-05-02T01:38:04.909Z,996.89
2019-05-02T01:39:07.503Z,996.84
2019-05-02T01:40:04.881Z,996.82
2019-05-02T01:41:04.874Z,996.80
2019-05-02T01:42:05.442Z,996.75
2019-05-02T01:43:04.854Z,996.69
2019-05-02T01:44:04.850Z,996.64
2019-05-02T01:45:06.747Z,996.72
2019-05-02T01:46:05.819Z,996.69
2019-05-02T01:47:04.798Z,996.69
2019-05-02T01:48:04.954Z,996.64
2019-05-02T01:49:04.820Z,996.64
2019-05-02T01:50:04.767Z,996.67
2019-05-02T01:51:10.070Z,996.67
2019-05-02T01:52:05.763Z,996.70
2019-05-02T01:53:04.739Z,996.62
2019-05-02T01:54:05.097Z,996.62
2019-05-02T01:55:04.727Z,996.66
2019-05-02T01:56:04.715Z,996.63
2019-05-02T01:57:08.622Z,996.66
2019-05-02T01:58:05.682Z,996.66
2019-05-02T01:59:04.703Z,996.63
2019-05-02T02:00:09.377Z,996.62
2019-05-02T02:01:05.663Z,996.64
2019-05-02T02:02:04.648Z,996.62
2019-05-02T02:03:09.050Z,996.60
2019-05-02T02:04:05.637Z,996.62
2019-05-02T02:05:04.633Z,996.63
2019-05-02T02:06:08.120Z,996.61
2019-05-02T02:07:05.594Z,996.60
2019-05-02T02:08:04.571Z,996.61
2019-05-02T02:09:08.435Z,996.61
2019-05-02T02:10:05.577Z,996.60
2019-05-02T02:11:04.587Z,996.56
2019-05-02T02:12:04.914Z,996.54
2019-05-02T02:13:05.285Z,996.49
2019-05-02T02:14:07.429Z,996.51
2019-05-02T02:15:05.505Z,996.54
2019-05-02T02:16:05.847Z,996.56
2019-05-02T02:17:04.516Z,996.55
2019-05-02T02:18:04.475Z,996.57
2019-05-02T02:19:05.399Z,996.56
2019-05-02T02:20:04.458Z,996.52
2019-05-02T02:21:04.447Z,996.54
2019-05-02T02:22:04.487Z,996.51
2019-05-02T02:23:04.436Z,996.52
2019-05-02T02:24:04.404Z,996.53
2019-05-02T02:25:04.414Z,996.51
2019-05-02T02:26:06.808Z,996.46
2019-05-02T02:27:05.405Z,996.46
2019-05-02T02:28:04.366Z,996.48
2019-05-02T02:29:07.944Z,996.52
2019-05-02T02:30:04.347Z,996.53
2019-05-02T02:31:07.467Z,996.50
2019-05-02T02:32:04.337Z,996.47
2019-05-02T02:33:07.567Z,996.50
2019-05-02T02:34:04.301Z,996.50
2019-05-02T02:35:10.087Z,996.50
2019-05-02T02:36:05.281Z,996.49
2019-05-02T02:37:05.310Z,996.44
2019-05-02T02:38:05.284Z,996.46
2019-05-02T02:39:06.919Z,996.42
2019-05-02T02:40:05.244Z,996.40
2019-05-02T02:41:06.443Z,996.44
2019-05-02T02:42:05.225Z,996.42
2019-05-02T02:43:22.245Z,996.39
2019-05-02T02:44:05.216Z,996.44
2019-05-02T02:45:04.197Z,996.39
2019-05-02T02:46:04.185Z,996.38
2019-05-02T02:47:04.175Z,996.39
2019-05-02T02:48:04.145Z,996.38
2019-05-02T02:49:04.147Z,996.40
2019-05-02T02:50:05.339Z,996.36
2019-05-02T02:51:04.123Z,996.38
2019-05-02T02:52:05.025Z,996.38
2019-05-02T02:53:04.121Z,996.42
2019-05-02T02:54:05.861Z,996.42
2019-05-02T02:55:04.082Z,996.39
2019-05-02T02:56:04.262Z,996.38
2019-05-02T02:57:04.069Z,996.42
2019-05-02T02:58:04.698Z,996.44
2019-05-02T02:59:04.084Z,996.41
2019-05-02T03:00:07.788Z,996.46
2019-05-02T03:01:05.019Z,996.42
2019-05-02T03:02:10.073Z,996.37
2019-05-02T03:03:04.989Z,996.36
2019-05-02T03:04:09.642Z,996.40
2019-05-02T03:05:04.979Z,996.39
2019-05-02T03:06:05.631Z,996.41
2019-05-02T03:07:03.951Z,996.37
2019-05-02T03:08:05.404Z,996.37
2019-05-02T03:09:03.922Z,996.34
2019-05-02T03:10:06.031Z,996.39
2019-05-02T03:11:03.912Z,996.36
2019-05-02T03:12:04.580Z,996.39
2019-05-02T03:13:03.887Z,996.36
2019-05-02T03:14:07.405Z,996.39
2019-05-02T03:15:04.869Z,996.38
2019-05-02T03:16:07.068Z,996.40
2019-05-02T03:17:04.839Z,996.39
2019-05-02T03:18:03.834Z,996.38
2019-05-02T03:19:03.823Z,996.34
2019-05-02T03:20:04.021Z,996.41
2019-05-02T03:21:03.856Z,996.41
2019-05-02T03:22:04.187Z,996.37
2019-05-02T03:23:03.789Z,996.39
2019-05-02T03:24:05.814Z,996.38
2019-05-02T03:25:03.752Z,996.35
2019-05-02T03:26:07.847Z,996.40
2019-05-02T03:27:04.716Z,996.39
2019-05-02T03:28:03.751Z,996.32
2019-05-02T03:29:03.742Z,996.33
2019-05-02T03:30:03.690Z,996.32
2019-05-02T03:31:20.963Z,996.31
2019-05-02T03:32:14.401Z,996.32
2019-05-02T03:33:10.250Z,996.31
2019-05-02T03:34:04.703Z,996.34
2019-05-02T03:35:03.655Z,996.31
2019-05-02T03:36:03.635Z,996.29
2019-05-02T03:37:10.688Z,996.34
2019-05-02T03:38:04.608Z,996.31
2019-05-02T03:39:13.582Z,996.30
2019-05-02T03:40:04.606Z,996.31
2019-05-02T03:41:03.590Z,996.29
2019-05-02T03:42:04.976Z,996.30
2019-05-02T03:43:03.571Z,996.29
2019-05-02T03:44:11.370Z,996.29
2019-05-02T03:45:05.276Z,996.30
2019-05-02T03:46:03.535Z,996.33
2019-05-02T03:47:04.990Z,996.26
2019-05-02T03:48:03.539Z,996.28
2019-05-02T03:49:07.376Z,996.26
2019-05-02T03:50:08.343Z,996.28
2019-05-02T03:51:05.215Z,996.25
2019-05-02T03:52:05.901Z,996.25
2019-05-02T03:53:03.450Z,996.27
2019-05-02T03:54:07.785Z,996.22
2019-05-02T03:55:04.450Z,996.28
2019-05-02T03:56:10.604Z,996.27
2019-05-02T03:57:04.419Z,996.28
2019-05-02T03:58:12.860Z,996.20
2019-05-02T03:59:04.434Z,996.27
2019-05-02T04:00:03.391Z,996.23
2019-05-02T04:01:03.900Z,996.22
2019-05-02T04:02:03.393Z,996.20
2019-05-02T04:03:03.366Z,996.19
2019-05-02T04:04:03.343Z,996.21
2019-05-02T04:05:03.335Z,996.16
2019-05-02T04:06:03.322Z,996.15
2019-05-02T04:07:03.409Z,996.14
2019-05-02T04:08:05.385Z,996.11
2019-05-02T04:09:05.356Z,996.09
2019-05-02T04:10:04.689Z,996.08
2019-05-02T04:11:03.645Z,996.10
2019-05-02T04:12:03.588Z,996.11
2019-05-02T04:13:03.512Z,996.11
2019-05-02T04:14:14.885Z,996.03
2019-05-02T04:15:04.318Z,996.08
2019-05-02T04:16:14.535Z,996.03
2019-05-02T04:17:04.310Z,996.06
2019-05-02T04:18:08.386Z,996.04
2019-05-02T04:19:04.302Z,996.08
2019-05-02T04:20:09.783Z,996.07
2019-05-02T04:21:04.243Z,996.07
2019-05-02T04:22:08.425Z,996.09
2019-05-02T04:23:04.113Z,996.07
2019-05-02T04:24:12.999Z,996.12
2019-05-02T04:25:06.325Z,996.11
2019-05-02T04:26:06.804Z,996.03
2019-05-02T04:27:04.202Z,996.13
2019-05-02T04:28:05.959Z,996.07
2019-05-02T04:29:04.247Z,996.12
2019-05-02T04:30:11.618Z,996.11
2019-05-02T04:31:04.151Z,996.05
2019-05-02T04:32:10.817Z,996.10
2019-05-02T04:33:04.044Z,996.04
2019-05-02T04:34:14.198Z,996.07
2019-05-02T04:35:03.991Z,996.09
2019-05-02T04:36:14.033Z,996.05
2019-05-02T04:37:04.296Z,996.05
2019-05-02T04:38:09.986Z,996.09
2019-05-02T04:39:05.659Z,996.12
2019-05-02T04:40:07.918Z,996.07
2019-05-02T04:41:03.952Z,996.04
2019-05-02T04:42:13.021Z,996.10
2019-05-02T04:43:08.229Z,996.08
2019-05-02T04:44:04.247Z,996.04
2019-05-02T04:45:21.171Z,996.05
2019-05-02T04:46:09.454Z,996.07
2019-05-02T04:47:13.933Z,996.06
2019-05-02T04:48:04.239Z,996.04
2019-05-02T04:49:02.940Z,996.04
2019-05-02T04:50:08.006Z,995.97
2019-05-02T04:51:10.136Z,995.98
2019-05-02T04:52:10.374Z,995.98
2019-05-02T04:53:03.827Z,996.03
2019-05-02T04:54:02.792Z,995.99
2019-05-02T04:55:14.797Z,996.02
2019-05-02T04:56:06.845Z,996.00
2019-05-02T04:57:03.884Z,996.03
2019-05-02T04:58:03.153Z,996.03
2019-05-02T04:59:14.015Z,996.07
2019-05-02T05:00:08.474Z,996.05
2019-05-02T05:01:03.849Z,995.98
2019-05-02T05:02:02.841Z,996.02
2019-05-02T05:03:07.223Z,996.01
2019-05-02T05:04:03.870Z,995.99
2019-05-02T05:05:02.757Z,996.00
2019-05-02T05:06:10.048Z,996.02
2019-05-02T05:07:03.690Z,996.01
2019-05-02T05:08:02.694Z,995.97
2019-05-02T05:09:04.005Z,995.94
2019-05-02T05:10:03.769Z,995.97
2019-05-02T05:11:02.741Z,995.97
2019-05-02T05:12:02.840Z,995.95
2019-05-02T05:13:02.784Z,995.95
2019-05-02T05:14:02.633Z,995.94
2019-05-02T05:15:02.629Z,995.93
2019-05-02T05:16:02.989Z,995.95
2019-05-02T05:17:02.738Z,995.97
2019-05-02T05:18:04.440Z,996.02
2019-05-02T05:19:03.605Z,995.92
2019-05-02T05:20:10.452Z,995.94
2019-05-02T05:21:03.696Z,995.98
2019-05-02T05:22:04.949Z,996.00
2019-05-02T05:23:02.495Z,996.04
2019-05-02T05:24:02.465Z,996.00
2019-05-02T05:25:02.453Z,996.05
2019-05-02T05:26:04.707Z,996.05
2019-05-02T05:27:02.467Z,996.07
2019-05-02T05:28:05.901Z,996.09
2019-05-02T05:29:02.706Z,996.09
2019-05-02T05:30:09.422Z,996.08
2019-05-02T05:31:03.478Z,996.12
2019-05-02T05:32:05.705Z,996.14
2019-05-02T05:33:03.364Z,996.05
2019-05-02T05:34:02.495Z,996.03
2019-05-02T05:35:03.420Z,996.08
2019-05-02T05:36:03.507Z,996.08
2019-05-02T05:37:03.801Z,996.10
2019-05-02T05:38:03.441Z,996.11
2019-05-02T05:39:03.013Z,996.13
2019-05-02T05:40:03.568Z,996.15
2019-05-02T05:41:03.075Z,996.19
2019-05-02T05:42:03.336Z,996.13
2019-05-02T05:43:11.317Z,996.20
2019-05-02T05:44:03.269Z,996.13
2019-05-02T05:45:03.714Z,996.13
2019-05-02T05:46:10.628Z,996.12
2019-05-02T05:47:03.389Z,996.12
2019-05-02T05:48:02.235Z,996.10
2019-05-02T05:49:02.378Z,996.12
2019-05-02T05:50:02.294Z,996.10
2019-05-02T05:51:02.282Z,996.09
2019-05-02T05:52:03.762Z,996.11
2019-05-02T05:53:02.215Z,996.14
2019-05-02T05:54:03.159Z,996.12
2019-05-02T05:55:04.772Z,996.13
2019-05-02T05:56:02.594Z,996.11
2019-05-02T05:57:02.152Z,996.12
2019-05-02T05:58:12.407Z,996.13
2019-05-02T05:59:03.309Z,996.14
2019-05-02T06:00:03.956Z,996.09
2019-05-02T06:01:03.191Z,996.13
2019-05-02T06:02:05.409Z,996.11
2019-05-02T06:03:13.058Z,996.13
2019-05-02T06:04:03.133Z,996.09
2019-05-02T06:05:03.712Z,996.11
2019-05-02T06:06:02.107Z,996.11
2019-05-02T06:07:03.277Z,996.06
2019-05-02T06:08:01.981Z,996.06
2019-05-02T06:09:01.993Z,996.03
2019-05-02T06:10:02.224Z,996.05
2019-05-02T06:11:02.953Z,996.06
2019-05-02T06:12:01.938Z,996.03
2019-05-02T06:13:05.233Z,996.02
2019-05-02T06:14:02.910Z,996.03
2019-05-02T06:15:03.759Z,996.08
2019-05-02T06:16:03.220Z,996.10
2019-05-02T06:17:01.923Z,996.06
2019-05-02T06:18:04.814Z,996.04
2019-05-02T06:19:01.858Z,996.04
2019-05-02T06:20:01.847Z,996.02
2019-05-02T06:21:03.453Z,996.00
2019-05-02T06:22:02.883Z,995.99
2019-05-02T06:23:01.861Z,996.01
2019-05-02T06:24:01.809Z,996.02
2019-05-02T06:25:01.812Z,995.96
2019-05-02T06:26:07.910Z,995.97
2019-05-02T06:27:02.787Z,995.91
2019-05-02T06:28:05.184Z,995.92
2019-05-02T06:29:01.787Z,995.88
2019-05-02T06:30:01.750Z,995.92
2019-05-02T06:31:02.120Z,995.92
2019-05-02T06:32:02.710Z,995.92
2019-05-02T06:33:01.737Z,995.90
2019-05-02T06:34:02.088Z,995.86
2019-05-02T06:35:01.712Z,995.83
2019-05-02T06:36:02.507Z,995.84
2019-05-02T06:37:01.669Z,995.83
2019-05-02T06:38:01.668Z,995.84
2019-05-02T06:39:01.648Z,995.79
2019-05-02T06:40:03.054Z,995.78
2019-05-02T06:41:02.675Z,995.82
2019-05-02T06:42:01.629Z,995.81
2019-05-02T06:43:04.227Z,995.80
2019-05-02T06:44:02.599Z,995.77
2019-05-02T06:45:01.587Z,995.78
2019-05-02T06:46:14.902Z,995.81
2019-05-02T06:47:04.277Z,995.73
2019-05-02T06:48:01.556Z,995.77
2019-05-02T06:49:01.538Z,995.77
2019-05-02T06:50:02.773Z,995.71
2019-05-02T06:51:01.537Z,995.73
2019-05-02T06:52:01.534Z,995.66
2019-05-02T06:53:04.363Z,995.72
2019-05-02T06:54:02.472Z,995.67
2019-05-02T06:55:01.468Z,995.66
2019-05-02T06:56:01.469Z,995.72
2019-05-02T06:57:01.517Z,995.69
2019-05-02T06:58:02.890Z,995.73
2019-05-02T06:59:01.463Z,995.75
2019-05-02T07:00:01.418Z,995.69
2019-05-02T07:01:01.409Z,995.71
2019-05-02T07:02:01.401Z,995.75
2019-05-02T07:03:05.129Z,995.70
2019-05-02T07:04:04.261Z,995.75
2019-05-02T07:05:01.361Z,995.68
2019-05-02T07:06:02.742Z,995.71
2019-05-02T07:07:01.497Z,995.71
2019-05-02T07:08:01.356Z,995.72
2019-05-02T07:09:01.607Z,995.66
2019-05-02T07:10:01.302Z,995.70
2019-05-02T07:11:03.136Z,995.68
2019-05-02T07:12:01.676Z,995.72
2019-05-02T07:13:09.946Z,995.74
2019-05-02T07:14:12.973Z,995.77
2019-05-02T07:15:03.861Z,995.76
2019-05-02T07:16:01.236Z,995.79
2019-05-02T07:17:01.235Z,995.74
2019-05-02T07:18:05.440Z,995.70
2019-05-02T07:19:02.203Z,995.76
2019-05-02T07:20:04.102Z,995.76
2019-05-02T07:21:01.196Z,995.78
2019-05-02T07:22:04.192Z,995.76
2019-05-02T07:23:01.217Z,995.73
2019-05-02T07:24:01.195Z,995.71
2019-05-02T07:25:01.931Z,995.79
2019-05-02T07:26:02.134Z,995.72
2019-05-02T07:27:02.542Z,995.80
2019-05-02T07:28:04.655Z,995.80
2019-05-02T07:29:02.123Z,995.81
2019-05-02T07:30:01.123Z,995.81
2019-05-02T07:31:01.110Z,995.79
2019-05-02T07:32:01.111Z,995.78
2019-05-02T07:33:02.309Z,995.81
2019-05-02T07:34:01.094Z,995.79
2019-05-02T07:35:01.038Z,995.75
2019-05-02T07:36:01.461Z,995.79
2019-05-02T07:37:01.008Z,995.79
2019-05-02T07:38:01.017Z,995.79
2019-05-02T07:39:05.232Z,995.72
2019-05-02T07:40:01.991Z,995.73
2019-05-02T07:41:01.016Z,995.78
2019-05-02T07:42:05.971Z,995.73
2019-05-02T07:43:01.942Z,995.80
2019-05-02T07:44:00.953Z,995.78
2019-05-02T07:45:04.417Z,995.79
2019-05-02T07:46:01.922Z,995.83
2019-05-02T07:47:02.448Z,995.83
2019-05-02T07:48:01.540Z,995.80
2019-05-02T07:49:00.916Z,995.82
2019-05-02T07:50:05.397Z,995.80
2019-05-02T07:51:01.860Z,995.84
2019-05-02T07:52:00.866Z,995.86
2019-05-02T07:53:04.427Z,995.86
2019-05-02T07:54:01.875Z,995.85
2019-05-02T07:55:01.165Z,995.86
2019-05-02T07:56:00.793Z,995.91
2019-05-02T07:57:02.382Z,995.85
2019-05-02T07:58:02.014Z,995.98
2019-05-02T07:59:01.797Z,995.93
2019-05-02T08:00:02.603Z,995.93
2019-05-02T08:01:00.773Z,995.91
2019-05-02T08:02:00.745Z,995.90
2019-05-02T08:03:00.735Z,995.89
2019-05-02T08:04:04.459Z,995.90
2019-05-02T08:05:00.732Z,995.91
2019-05-02T08:06:00.720Z,995.89
2019-05-02T08:07:00.703Z,995.84
2019-05-02T08:08:00.682Z,995.85
2019-05-02T08:09:01.625Z,995.89
2019-05-02T08:10:01.683Z,995.93
2019-05-02T08:11:02.884Z,995.87
2019-05-02T08:12:00.613Z,995.89
2019-05-02T08:13:00.643Z,995.93
2019-05-02T08:14:00.686Z,995.93
2019-05-02T08:15:00.614Z,995.91
2019-05-02T08:16:00.602Z,995.88
2019-05-02T08:17:05.846Z,995.92
2019-05-02T08:18:01.652Z,995.92
2019-05-02T08:19:04.966Z,995.96
2019-05-02T08:20:00.560Z,995.94
2019-05-02T08:21:00.532Z,995.88
2019-05-02T08:22:04.713Z,995.89
2019-05-02T08:23:01.511Z,995.95
2019-05-02T08:24:02.179Z,995.92
2019-05-02T08:25:00.497Z,995.86
2019-05-02T08:26:00.500Z,995.93
2019-05-02T08:27:00.470Z,995.92
2019-05-02T08:28:00.482Z,995.94
2019-05-02T08:29:00.435Z,995.94
2019-05-02T08:30:04.309Z,995.95
2019-05-02T08:31:01.440Z,995.95
2019-05-02T08:32:00.404Z,995.98
2019-05-02T08:33:00.404Z,996.00
2019-05-02T08:34:00.428Z,996.07
2019-05-02T08:35:00.381Z,996.02
2019-05-02T08:36:00.363Z,996.00
2019-05-02T08:37:03.388Z,996.03
2019-05-02T08:38:00.352Z,996.03
2019-05-02T08:39:00.331Z,995.99
2019-05-02T08:40:00.329Z,995.97
2019-05-02T08:41:00.317Z,996.05
2019-05-02T08:42:00.305Z,996.00
2019-05-02T08:43:03.695Z,996.04
2019-05-02T08:44:01.262Z,996.03
2019-05-02T08:45:00.988Z,996.09
2019-05-02T08:46:00.296Z,996.08
2019-05-02T08:47:00.249Z,996.03
2019-05-02T08:48:04.844Z,996.06
2019-05-02T08:49:01.240Z,996.04
2019-05-02T08:50:00.221Z,996.05
2019-05-02T08:51:00.202Z,996.07
2019-05-02T08:52:00.213Z,996.08
2019-05-02T08:53:00.220Z,996.10
2019-05-02T08:54:00.193Z,996.08
2019-05-02T08:55:04.357Z,996.09
2019-05-02T08:56:01.142Z,996.11
2019-05-02T08:57:00.647Z,996.11
2019-05-02T08:58:00.141Z,996.11
2019-05-02T08:59:00.113Z,996.12
2019-05-02T09:00:01.370Z,996.13
2019-05-02T09:01:00.103Z,996.03
2019-05-02T09:02:00.082Z,996.02
2019-05-02T09:03:02.590Z,996.12
2019-05-02T09:04:00.062Z,996.07
2019-05-02T09:05:04.667Z,996.07
2019-05-02T09:06:05.890Z,996.02
2019-05-02T09:07:01.057Z,996.10
2019-05-02T09:08:00.051Z,996.05
2019-05-02T09:09:00.023Z,996.04
2019-05-02T09:10:00.163Z,996.02
2019-05-02T09:11:01.070Z,996.07
2019-05-02T09:12:11.395Z,996.02
2019-05-02T09:13:02.675Z,996.00
2019-05-02T09:14:01.945Z,995.91
2019-05-02T09:14:59.922Z,995.92
2019-05-02T09:16:02.781Z,995.91
2019-05-02T09:17:08.618Z,995.95
2019-05-02T09:18:02.685Z,995.95
2019-05-02T09:18:59.889Z,996.14
2019-05-02T09:20:04.969Z,996.01
2019-05-02T09:21:02.071Z,995.95
2019-05-02T09:21:59.914Z,996.09
2019-05-02T09:23:01.617Z,995.96
2019-05-02T09:23:59.832Z,995.94
2019-05-02T09:25:02.107Z,995.95
2019-05-02T09:25:59.814Z,996.02
2019-05-02T09:26:59.823Z,996.03
2019-05-02T09:28:01.735Z,996.09
2019-05-02T09:29:01.710Z,996.02
2019-05-02T09:30:02.739Z,995.91
2019-05-02T09:31:05.025Z,995.93
2019-05-02T09:32:02.132Z,995.92
2019-05-02T09:33:02.843Z,995.98
2019-05-02T09:34:02.548Z,995.94
2019-05-02T09:35:02.351Z,995.90
2019-05-02T09:36:02.378Z,996.15
2019-05-02T09:36:59.750Z,995.91
2019-05-02T09:38:01.638Z,995.82
2019-05-02T09:38:59.710Z,996.14
2019-05-02T09:40:02.047Z,996.09
2019-05-02T09:41:13.822Z,996.04
2019-05-02T09:42:02.174Z,995.74
2019-05-02T09:43:02.201Z,995.78
2019-05-02T09:43:59.636Z,995.82
2019-05-02T09:44:59.618Z,996.10
2019-05-02T09:45:59.605Z,996.14
2019-05-02T09:46:59.574Z,995.86
2019-05-02T09:48:05.182Z,995.77
2019-05-02T09:49:02.881Z,995.95
2019-05-02T09:49:59.605Z,995.81
2019-05-02T09:51:04.527Z,995.69
2019-05-02T09:52:01.280Z,995.83
2019-05-02T09:53:01.700Z,995.88
2019-05-02T09:54:04.698Z,995.62
2019-05-02T09:55:02.751Z,995.59
2019-05-02T09:55:59.492Z,995.66
2019-05-02T09:56:59.474Z,995.68
2019-05-02T09:57:59.499Z,995.97
2019-05-02T09:59:04.825Z,995.64
2019-05-02T10:00:02.156Z,995.72
2019-05-02T10:00:59.440Z,995.57
2019-05-02T10:01:59.432Z,995.63
2019-05-02T10:02:59.415Z,995.66
2019-05-02T10:03:59.487Z,995.66
2019-05-02T10:04:59.432Z,995.62
2019-05-02T10:05:59.393Z,995.58
2019-05-02T10:06:59.453Z,995.55
2019-05-02T10:08:03.120Z,995.54
2019-05-02T10:09:02.631Z,995.58
2019-05-02T10:10:03.115Z,995.61
2019-05-02T10:11:02.619Z,995.59
2019-05-02T10:11:59.348Z,995.59
2019-05-02T10:12:59.311Z,995.54
2019-05-02T10:13:59.303Z,995.53
2019-05-02T10:14:59.327Z,995.47
2019-05-02T10:15:59.274Z,995.42
2019-05-02T10:17:05.133Z,995.39
2019-05-02T10:18:08.686Z,995.47
2019-05-02T10:19:00.498Z,995.42
2019-05-02T10:20:02.029Z,995.41
2019-05-02T10:20:59.232Z,995.42
2019-05-02T10:21:59.203Z,995.42
2019-05-02T10:22:59.191Z,995.35
2019-05-02T10:24:00.864Z,995.34
2019-05-02T10:24:59.186Z,995.23
2019-05-02T10:25:59.183Z,995.23
2019-05-02T10:27:04.297Z,995.23
2019-05-02T10:28:02.142Z,995.20
2019-05-02T10:28:59.135Z,995.26
2019-05-02T10:30:08.207Z,995.26
2019-05-02T10:31:02.086Z,995.24
2019-05-02T10:31:59.111Z,995.25
2019-05-02T10:32:59.119Z,995.19
2019-05-02T10:33:59.061Z,995.17
2019-05-02T10:34:59.076Z,995.13
2019-05-02T10:35:59.105Z,995.13
2019-05-02T10:37:00.401Z,995.06
2019-05-02T10:37:59.055Z,995.08
2019-05-02T10:38:59.399Z,995.10
2019-05-02T10:39:59.012Z,995.09
2019-05-02T10:41:01.823Z,995.10
2019-05-02T10:42:01.993Z,995.01
2019-05-02T10:42:58.975Z,995.00
2019-05-02T10:43:59.621Z,995.05
2019-05-02T10:44:58.988Z,995.07
2019-05-02T10:45:58.934Z,995.05
2019-05-02T10:46:58.994Z,995.16
2019-05-02T10:47:58.926Z,995.11
2019-05-02T10:48:58.914Z,995.21
2019-05-02T10:49:58.904Z,995.30
2019-05-02T10:50:58.876Z,995.38
2019-05-02T10:51:58.899Z,995.32
2019-05-02T10:53:03.492Z,995.44
2019-05-02T10:53:59.855Z,995.51
2019-05-02T10:54:58.855Z,995.39
2019-05-02T10:55:58.841Z,995.49
2019-05-02T10:56:58.843Z,995.48
2019-05-02T10:57:58.842Z,995.48
2019-05-02T10:58:58.807Z,995.18
2019-05-02T10:59:58.808Z,995.31
2019-05-02T11:00:58.786Z,995.33
2019-05-02T11:01:58.773Z,995.37
2019-05-02T11:02:58.775Z,995.00
2019-05-02T11:03:58.733Z,994.94
2019-05-02T11:04:58.741Z,994.90
2019-05-02T11:06:05.640Z,994.86
2019-05-02T11:06:59.717Z,995.20
2019-05-02T11:08:04.715Z,995.23
2019-05-02T11:08:59.697Z,995.28
2019-05-02T11:10:03.145Z,995.18
2019-05-02T11:10:59.657Z,995.13
2019-05-02T11:11:58.658Z,995.06
2019-05-02T11:12:58.665Z,995.12
2019-05-02T11:14:01.045Z,994.82
2019-05-02T11:14:59.634Z,994.74
2019-05-02T11:15:58.604Z,994.72
2019-05-02T11:16:58.609Z,994.69
2019-05-02T11:17:58.616Z,994.92
2019-05-02T11:18:58.599Z,995.05
2019-05-02T11:19:58.570Z,995.15
2019-05-02T11:20:58.962Z,995.17
2019-05-02T11:21:59.246Z,995.09
2019-05-02T11:22:58.563Z,995.10
2019-05-02T11:23:58.664Z,995.11
2019-05-02T11:24:58.565Z,995.09
2019-05-02T11:25:58.507Z,995.14
2019-05-02T11:26:58.497Z,995.14
2019-05-02T11:28:05.451Z,995.22
2019-05-02T11:28:59.497Z,995.24
2019-05-02T11:29:58.468Z,995.22
2019-05-02T11:31:02.602Z,995.27
2019-05-02T11:31:59.443Z,995.20
2019-05-02T11:32:58.447Z,995.29
2019-05-02T11:33:58.456Z,995.27
2019-05-02T11:34:58.452Z,995.31
2019-05-02T11:35:58.428Z,995.30
2019-05-02T11:36:58.398Z,995.27
2019-05-02T11:37:58.378Z,995.18
2019-05-02T11:39:05.402Z,995.16
2019-05-02T11:40:01.357Z,995.33
2019-05-02T11:40:58.364Z,994.87
2019-05-02T11:41:58.386Z,995.18
2019-05-02T11:43:02.868Z,995.19
2019-05-02T11:43:59.330Z,995.06
2019-05-02T11:44:58.307Z,994.64
2019-05-02T11:46:05.588Z,995.00
2019-05-02T11:46:59.279Z,995.13
2019-05-02T11:48:02.037Z,994.98
2019-05-02T11:48:59.274Z,995.05
2019-05-02T11:49:58.239Z,994.74
2019-05-02T11:50:58.248Z,995.16
2019-05-02T11:51:58.232Z,995.16
2019-05-02T11:52:58.256Z,995.18
2019-05-02T11:53:59.304Z,995.23
2019-05-02T11:54:59.199Z,995.17
2019-05-02T11:56:02.394Z,995.19
2019-05-02T11:56:59.190Z,994.70
2019-05-02T11:58:02.414Z,995.11
2019-05-02T11:58:59.169Z,995.13
2019-05-02T11:59:59.476Z,994.86
2019-05-02T12:01:02.859Z,994.56
2019-05-02T12:02:00.097Z,994.41
2019-05-02T12:02:58.470Z,994.41
2019-05-02T12:03:58.125Z,994.66
2019-05-02T12:04:58.101Z,994.47
2019-05-02T12:05:58.094Z,994.86
2019-05-02T12:07:01.328Z,995.01
2019-05-02T12:08:02.595Z,995.02
2019-05-02T12:08:59.052Z,995.00
2019-05-02T12:09:58.063Z,995.06
2019-05-02T12:11:00.966Z,994.93
2019-05-02T12:11:58.053Z,994.58
2019-05-02T12:12:58.003Z,994.38
2019-05-02T12:13:58.052Z,994.43
2019-05-02T12:14:58.004Z,994.32
2019-05-02T12:15:57.997Z,994.55
2019-05-02T12:16:57.975Z,994.74
2019-05-02T12:17:57.996Z,994.78
2019-05-02T12:19:08.577Z,994.43
2019-05-02T12:19:58.928Z,994.28
2019-05-02T12:20:57.936Z,994.18
2019-05-02T12:21:57.905Z,994.17
2019-05-02T12:22:57.958Z,994.13
2019-05-02T12:23:57.914Z,994.13
2019-05-02T12:24:57.872Z,994.57
2019-05-02T12:25:57.875Z,994.67
2019-05-02T12:26:57.859Z,994.75
2019-05-02T12:27:57.874Z,994.85